Terminal Aerodrome Forecast
Issued by NWS Charleston, WV

Home | Current Version | Previous Version | Text Only | Print | Product List | Glossary On
Versions: 1 2 3 4 5 6 7 8 9 10 11 12 13 14 15 16 17 18 19 20 21 22 23
000
FTUS41 KRLX 171100
TAFHTS
TAF
KHTS 171137Z 1712/1812 33003KT 1/4SM FG VV001
     FM171330 00000KT 6SM BR SCT001
     FM171400 00000KT P6SM FEW040
     FM172100 VRB03KT P6SM SCT040
     FM180400 36001KT 4SM BR SCT040
     FM180500 36001KT 1 1/2SM BR SCT040=

USA.gov is the U.S. government's official web portal to all federal, state and local government web resources and services.